createdAt,value
2023-02-11T00:00:40.589Z,10.65
2023-02-11T00:03:07.884Z,10.30
2023-02-11T00:05:35.219Z,10.65
2023-02-11T00:08:03.866Z,11.02
2023-02-11T00:10:31.038Z,10.82
2023-02-11T00:12:57.977Z,10.38
2023-02-11T00:15:25.029Z,10.65
2023-02-11T00:17:52.332Z,11.02
2023-02-11T00:20:19.494Z,10.40
2023-02-11T00:22:46.400Z,11.70
2023-02-11T00:25:14.784Z,11.85
2023-02-11T00:27:41.683Z,11.25
2023-02-11T00:30:10.463Z,11.27
2023-02-11T00:32:38.482Z,11.55
2023-02-11T00:35:06.477Z,11.90
2023-02-11T00:37:36.578Z,12.23
2023-02-11T00:40:06.660Z,11.10
2023-02-11T00:42:37.998Z,10.40
2023-02-11T00:45:05.482Z,11.50
2023-02-11T00:47:32.408Z,10.98
2023-02-11T00:50:00.988Z,10.80
2023-02-11T00:52:28.194Z,10.02
2023-02-11T00:54:55.108Z,11.18
2023-02-11T00:57:22.024Z,9.65
2023-02-11T00:59:51.708Z,11.27
2023-02-11T01:02:18.965Z,10.80
2023-02-11T01:04:45.900Z,11.10
2023-02-11T01:07:12.859Z,10.80
2023-02-11T01:09:39.786Z,8.93
2023-02-11T01:12:07.071Z,10.55
2023-02-11T01:14:34.030Z,9.68
2023-02-11T01:17:02.341Z,10.55
2023-02-11T01:19:29.309Z,9.38
2023-02-11T01:21:56.258Z,11.85
2023-02-11T01:24:23.187Z,9.73
2023-02-11T01:26:52.979Z,10.77
2023-02-11T01:29:20.277Z,10.27
2023-02-11T01:31:47.507Z,11.05
2023-02-11T01:34:16.201Z,10.35
2023-02-11T01:36:43.277Z,11.55
2023-02-11T01:39:10.384Z,10.48
2023-02-11T01:41:37.757Z,10.93
2023-02-11T01:44:28.455Z,10.98
2023-02-11T01:46:55.930Z,9.63
2023-02-11T01:49:27.842Z,11.18
2023-02-11T01:51:59.401Z,11.77
2023-02-11T01:54:48.730Z,10.82
2023-02-11T01:57:22.866Z,10.65
2023-02-11T01:59:58.206Z,10.85
2023-02-11T02:05:05.965Z,10.68
2023-02-11T02:07:37.352Z,10.75
2023-02-11T02:10:09.777Z,11.63
2023-02-11T02:12:37.004Z,11.60
2023-02-11T02:15:27.274Z,11.18
2023-02-11T02:18:11.402Z,11.00
2023-02-11T02:21:17.969Z,10.88
2023-02-11T02:27:06.807Z,10.80
2023-02-11T02:30:01.001Z,10.23
2023-02-11T02:32:39.493Z,10.43
2023-02-11T02:35:15.655Z,10.90
2023-02-11T02:37:51.577Z,10.38
2023-02-11T02:40:23.564Z,10.43
2023-02-11T02:42:51.480Z,11.63
2023-02-11T02:45:19.493Z,11.10
2023-02-11T02:47:47.902Z,10.75
2023-02-11T02:50:17.876Z,10.32
2023-02-11T02:52:57.784Z,11.77
2023-02-11T02:55:54.634Z,11.02
2023-02-11T02:58:45.980Z,10.55
2023-02-11T03:01:25.641Z,11.30
2023-02-11T03:04:02.825Z,11.57
2023-02-11T03:06:34.349Z,11.38
2023-02-11T03:09:08.489Z,12.10
2023-02-11T03:11:37.847Z,10.80
2023-02-11T03:14:07.951Z,11.82
2023-02-11T03:16:39.248Z,11.13
2023-02-11T03:19:12.753Z,11.23
2023-02-11T03:21:42.056Z,10.20
2023-02-11T03:24:13.462Z,11.40
2023-02-11T03:26:44.403Z,10.50
2023-02-11T03:29:17.967Z,11.10
2023-02-11T03:31:52.997Z,10.85
2023-02-11T03:34:28.081Z,10.20
2023-02-11T03:36:59.884Z,11.40
2023-02-11T03:39:32.045Z,11.23
2023-02-11T03:42:02.014Z,10.73
2023-02-11T03:44:34.830Z,11.45
2023-02-11T03:47:05.567Z,10.70
2023-02-11T03:49:36.530Z,10.50
2023-02-11T03:52:05.962Z,10.50
2023-02-11T03:54:33.305Z,11.98
2023-02-11T03:57:01.845Z,10.88
2023-02-11T03:59:29.105Z,12.25
2023-02-11T04:01:56.204Z,11.27
2023-02-11T04:04:23.312Z,11.45
2023-02-11T04:06:51.713Z,12.43
2023-02-11T04:09:18.705Z,12.02
2023-02-11T04:11:45.626Z,11.82
2023-02-11T04:14:12.544Z,12.27
2023-02-11T04:16:39.532Z,12.43
2023-02-11T04:19:06.550Z,12.32
2023-02-11T04:21:33.458Z,11.90
2023-02-11T04:24:01.756Z,12.15
2023-02-11T04:26:28.663Z,11.50
2023-02-11T04:28:55.647Z,11.50
2023-02-11T04:31:22.782Z,12.30
2023-02-11T04:33:49.742Z,11.80
2023-02-11T04:36:16.632Z,12.13
2023-02-11T04:38:43.535Z,12.60
2023-02-11T04:41:11.822Z,13.05
2023-02-11T04:43:38.790Z,11.75
2023-02-11T04:46:05.897Z,11.85
2023-02-11T04:48:32.864Z,11.25
2023-02-11T04:50:59.766Z,11.23
2023-02-11T04:53:26.776Z,11.27
2023-02-11T04:55:53.768Z,11.65
2023-02-11T04:58:22.134Z,11.88
2023-02-11T05:00:51.378Z,12.23
2023-02-11T05:03:18.591Z,11.52
2023-02-11T05:05:45.608Z,12.30
2023-02-11T05:08:13.432Z,14.13
2023-02-11T05:10:40.332Z,12.00
2023-02-11T05:13:07.239Z,12.27
2023-02-11T05:15:35.607Z,11.52
2023-02-11T05:18:02.594Z,11.80
2023-02-11T05:20:29.583Z,11.13
2023-02-11T05:22:56.499Z,11.25
2023-02-11T05:25:23.395Z,10.88
2023-02-11T05:27:50.316Z,12.45
2023-02-11T05:30:17.399Z,13.20
2023-02-11T05:32:45.653Z,12.35
2023-02-11T05:35:12.659Z,13.23
2023-02-11T05:37:39.749Z,13.10
2023-02-11T05:40:07.682Z,14.25
2023-02-11T05:42:37.677Z,15.85
2023-02-11T05:45:05.159Z,16.98
2023-02-11T05:47:32.313Z,14.35
2023-02-11T05:50:00.600Z,12.68
2023-02-11T05:52:27.555Z,11.85
2023-02-11T05:54:54.445Z,11.68
2023-02-11T05:57:21.350Z,11.70
2023-02-11T05:59:48.281Z,11.50
2023-02-11T06:02:15.740Z,12.00
2023-02-11T06:04:44.323Z,12.77
2023-02-11T06:07:12.811Z,12.15
2023-02-11T06:09:39.963Z,12.05
2023-02-11T06:12:07.220Z,11.77
2023-02-11T06:14:34.386Z,12.30
2023-02-11T06:17:01.748Z,13.00
2023-02-11T06:19:28.788Z,13.35
2023-02-11T06:21:56.343Z,12.93
2023-02-11T06:24:51.087Z,12.55
2023-02-11T06:27:12.771Z,13.43
2023-02-11T06:29:39.714Z,14.65
2023-02-11T06:32:08.664Z,13.98
2023-02-11T06:34:38.892Z,12.82
2023-02-11T06:37:06.386Z,15.95
2023-02-11T06:39:34.759Z,21.98
2023-02-11T06:42:02.902Z,24.55
2023-02-11T06:44:29.864Z,28.15
2023-02-11T06:46:56.891Z,21.35
2023-02-11T06:49:23.967Z,21.83
2023-02-11T06:51:50.890Z,15.88
2023-02-11T06:54:17.907Z,16.50
2023-02-11T06:56:46.324Z,18.13
2023-02-11T06:59:16.359Z,20.08
2023-02-11T07:01:43.468Z,14.55
2023-02-11T07:04:10.574Z,14.15
2023-02-11T07:06:37.705Z,14.18
2023-02-11T07:09:05.520Z,15.77
2023-02-11T07:11:33.240Z,15.70
2023-02-11T07:14:04.598Z,13.38
2023-02-11T07:16:32.376Z,19.85
2023-02-11T07:18:59.470Z,16.42
2023-02-11T07:21:26.748Z,23.75
2023-02-11T07:23:53.984Z,16.38
2023-02-11T07:26:23.258Z,14.55
2023-02-11T07:28:51.435Z,13.15
2023-02-11T07:31:22.066Z,15.20
2023-02-11T07:33:49.351Z,16.75
2023-02-11T07:36:16.858Z,13.70
2023-02-11T07:38:44.478Z,13.63
2023-02-11T07:41:15.216Z,14.70
2023-02-11T07:43:43.231Z,16.95
2023-02-11T07:46:12.933Z,16.77
2023-02-11T07:48:41.306Z,17.10
2023-02-11T07:51:10.030Z,12.73
2023-02-11T07:53:37.019Z,12.40
2023-02-11T07:56:05.260Z,11.10
2023-02-11T07:58:32.911Z,10.55
2023-02-11T08:01:02.308Z,11.60
2023-02-11T08:03:29.461Z,10.63
2023-02-11T08:05:58.043Z,10.48
2023-02-11T08:08:26.825Z,10.57
2023-02-11T08:10:53.791Z,10.63
2023-02-11T08:13:20.765Z,10.65
2023-02-11T08:15:50.849Z,10.00
2023-02-11T08:18:19.913Z,11.93
2023-02-11T08:20:46.886Z,9.48
2023-02-11T08:23:18.247Z,11.75
2023-02-11T08:25:45.134Z,10.10
2023-02-11T08:28:12.519Z,11.18
2023-02-11T08:30:39.536Z,12.40
2023-02-11T08:33:06.495Z,14.15
2023-02-11T08:35:35.266Z,14.18
2023-02-11T08:38:02.166Z,15.60
2023-02-11T08:40:30.492Z,16.20
2023-02-11T08:42:57.379Z,14.60
2023-02-11T08:45:24.312Z,15.55
2023-02-11T08:47:51.294Z,14.20
2023-02-11T08:50:18.310Z,13.43
2023-02-11T08:52:47.584Z,12.38
2023-02-11T08:55:14.632Z,13.00
2023-02-11T08:57:43.012Z,13.93
2023-02-11T09:00:11.216Z,13.18
2023-02-11T09:02:38.262Z,13.75
2023-02-11T09:05:05.881Z,14.45
2023-02-11T09:07:32.825Z,14.55
2023-02-11T09:09:59.781Z,14.48
2023-02-11T09:12:26.689Z,13.93
2023-02-11T09:14:55.254Z,13.98
2023-02-11T09:17:22.223Z,14.07
2023-02-11T09:19:49.122Z,13.50
2023-02-11T09:22:18.640Z,14.15
2023-02-11T09:24:45.570Z,14.27
2023-02-11T09:27:12.459Z,14.23
2023-02-11T09:29:39.381Z,13.00
2023-02-11T09:32:10.842Z,13.45
2023-02-11T09:34:38.004Z,13.50
2023-02-11T09:37:04.974Z,12.95
2023-02-11T09:39:31.864Z,13.55
2023-02-11T09:42:30.407Z,12.95
2023-02-11T09:44:58.091Z,13.60
2023-02-11T09:47:33.083Z,13.80
2023-02-11T09:50:04.267Z,14.02
2023-02-11T09:52:37.097Z,14.07
2023-02-11T09:55:06.425Z,13.88
2023-02-11T09:57:35.696Z,13.23
2023-02-11T10:00:17.458Z,14.65
2023-02-11T10:02:58.005Z,14.10
2023-02-11T10:05:40.016Z,12.82
2023-02-11T10:08:15.897Z,14.20
2023-02-11T10:10:50.985Z,14.00
2023-02-11T10:13:35.990Z,14.60
2023-02-11T10:16:14.878Z,13.03
2023-02-11T10:19:00.325Z,12.50
2023-02-11T10:21:35.011Z,12.75
2023-02-11T10:24:05.675Z,13.70
2023-02-11T10:26:34.276Z,13.07
2023-02-11T10:29:10.910Z,13.15
2023-02-11T10:31:42.478Z,13.75
2023-02-11T10:34:13.016Z,13.35
2023-02-11T10:36:42.687Z,13.82
2023-02-11T10:39:14.888Z,12.80
2023-02-11T10:41:44.851Z,13.50
2023-02-11T10:44:23.338Z,13.80
2023-02-11T10:46:51.374Z,13.73
2023-02-11T10:49:40.255Z,14.07
2023-02-11T10:52:15.891Z,14.25
2023-02-11T10:54:55.276Z,13.40
2023-02-11T10:57:23.116Z,14.70
2023-02-11T10:59:55.577Z,14.23
2023-02-11T11:02:31.966Z,13.45
2023-02-11T11:05:03.190Z,13.82
2023-02-11T11:07:31.679Z,13.82
2023-02-11T11:10:02.577Z,14.25
2023-02-11T11:12:33.392Z,12.85
2023-02-11T11:15:02.125Z,13.30
2023-02-11T11:17:29.772Z,14.55
2023-02-11T11:20:18.938Z,13.05
2023-02-11T11:22:47.390Z,14.02
2023-02-11T11:25:26.651Z,14.20
2023-02-11T11:27:56.082Z,12.65
2023-02-11T11:30:27.041Z,12.45
2023-02-11T11:32:54.727Z,13.07
2023-02-11T11:35:26.514Z,14.68
2023-02-11T11:37:55.238Z,12.27
2023-02-11T11:40:25.814Z,13.88
2023-02-11T11:43:16.696Z,13.38
2023-02-11T11:45:54.375Z,12.90
2023-02-11T11:48:24.048Z,13.32
2023-02-11T11:50:54.932Z,12.20
2023-02-11T11:53:28.588Z,12.23
2023-02-11T11:56:00.738Z,12.85
2023-02-11T11:58:29.124Z,11.45
2023-02-11T12:01:06.652Z,12.23
2023-02-11T12:04:02.525Z,11.85
2023-02-11T12:06:39.347Z,12.35
2023-02-11T12:09:15.475Z,11.20
2023-02-11T12:11:58.853Z,10.90
2023-02-11T12:14:38.214Z,11.27
2023-02-11T12:17:13.924Z,11.27
2023-02-11T12:19:56.334Z,11.63
2023-02-11T12:22:38.045Z,11.52
2023-02-11T12:25:25.326Z,11.65
2023-02-11T12:28:03.252Z,11.68
2023-02-11T12:30:44.127Z,12.40
2023-02-11T12:33:24.777Z,11.57
2023-02-11T12:35:58.491Z,11.70
2023-02-11T12:38:52.960Z,11.23
2023-02-11T12:41:59.667Z,12.88
2023-02-11T12:47:10.156Z,12.13
2023-02-11T12:49:53.559Z,12.13
2023-02-11T12:52:40.942Z,11.32
2023-02-11T12:55:20.082Z,11.93
2023-02-11T12:57:48.867Z,12.00
2023-02-11T13:00:19.012Z,11.68
2023-02-11T13:02:56.489Z,12.82
2023-02-11T13:05:28.402Z,11.50
2023-02-11T13:08:02.076Z,11.82
2023-02-11T13:10:34.036Z,11.32
2023-02-11T13:13:18.555Z,11.80
2023-02-11T13:15:50.207Z,11.77
2023-02-11T13:18:30.059Z,11.07
2023-02-11T13:21:05.111Z,13.10
2023-02-11T13:23:46.781Z,10.88
2023-02-11T13:26:23.551Z,10.57
2023-02-11T13:28:55.118Z,11.10
2023-02-11T13:31:26.745Z,10.48
2023-02-11T13:33:54.265Z,10.57
2023-02-11T13:36:26.658Z,15.65
2023-02-11T13:39:02.716Z,11.70
2023-02-11T13:41:34.308Z,10.32
2023-02-11T13:44:22.195Z,9.98
2023-02-11T13:46:54.288Z,9.60
2023-02-11T13:49:24.582Z,9.93
2023-02-11T13:51:53.629Z,10.55
2023-02-11T13:54:28.493Z,11.00
2023-02-11T13:57:41.624Z,10.07
2023-02-11T14:00:47.511Z,9.57
2023-02-11T14:03:48.372Z,9.18
2023-02-11T14:06:40.646Z,9.68
2023-02-11T14:09:30.191Z,9.02
2023-02-11T14:12:30.464Z,9.00
2023-02-11T14:15:21.723Z,9.40
2023-02-11T14:17:50.218Z,9.77
2023-02-11T14:20:39.300Z,9.57
2023-02-11T14:23:07.290Z,10.65
2023-02-11T14:25:34.424Z,11.07
2023-02-11T14:28:11.117Z,17.67
2023-02-11T14:30:57.487Z,58.33
2023-02-11T14:33:43.487Z,56.25
2023-02-11T14:36:23.055Z,76.28
2023-02-11T14:39:01.790Z,27.38
2023-02-11T14:41:32.069Z,17.80
2023-02-11T14:44:03.697Z,18.90
2023-02-11T14:46:32.977Z,13.05
2023-02-11T14:49:03.746Z,10.75
2023-02-11T14:51:34.969Z,20.30
2023-02-11T14:54:13.358Z,21.83
2023-02-11T14:56:40.300Z,10.07
2023-02-11T14:59:16.998Z,11.73
2023-02-11T15:01:48.585Z,12.20
2023-02-11T15:04:25.519Z,10.60
2023-02-11T15:06:53.146Z,12.88
2023-02-11T15:09:26.851Z,15.00
2023-02-11T15:11:55.499Z,33.85
2023-02-11T15:14:25.824Z,67.10
2023-02-11T15:16:54.586Z,21.88
2023-02-11T15:19:26.779Z,20.48
2023-02-11T15:21:54.168Z,22.27
2023-02-11T15:24:26.206Z,20.20
2023-02-11T15:26:57.550Z,51.20
2023-02-11T15:29:26.431Z,15.75
2023-02-11T15:32:15.729Z,10.27
2023-02-11T15:34:45.740Z,9.23
2023-02-11T15:37:14.858Z,9.75
2023-02-11T15:39:42.813Z,8.50
2023-02-11T15:42:24.340Z,8.45
2023-02-11T15:45:09.924Z,7.88
2023-02-11T15:47:36.992Z,7.93
2023-02-11T15:50:07.393Z,9.00
2023-02-11T15:52:34.600Z,8.00
2023-02-11T15:55:02.858Z,7.80
2023-02-11T15:57:29.988Z,10.00
2023-02-11T16:00:04.381Z,8.90
2023-02-11T16:02:45.188Z,8.02
2023-02-11T16:05:31.024Z,10.23
2023-02-11T16:10:28.196Z,35.22
2023-02-11T16:13:15.770Z,35.28
2023-02-11T16:15:49.755Z,13.65
2023-02-11T16:18:39.389Z,8.82
2023-02-11T16:21:16.801Z,9.65
2023-02-11T16:23:50.868Z,9.07
2023-02-11T16:26:25.154Z,8.98
2023-02-11T16:28:52.587Z,10.00
2023-02-11T16:31:20.041Z,10.85
2023-02-11T16:33:47.056Z,11.40
2023-02-11T16:36:19.331Z,13.57
2023-02-11T16:38:46.511Z,13.57
2023-02-11T16:41:13.619Z,71.68
2023-02-11T16:43:40.604Z,65.20
2023-02-11T16:46:08.817Z,30.88
2023-02-11T16:48:35.745Z,18.27
2023-02-11T16:51:03.515Z,11.25
2023-02-11T16:53:32.331Z,10.50
2023-02-11T16:55:59.290Z,10.98
2023-02-11T16:58:27.357Z,11.57
2023-02-11T17:00:57.085Z,14.70
2023-02-11T17:03:29.592Z,17.10
2023-02-11T17:05:57.132Z,18.60
2023-02-11T17:08:24.194Z,19.27
2023-02-11T17:10:52.896Z,20.15
2023-02-11T17:13:20.291Z,21.48
2023-02-11T17:15:47.359Z,20.30
2023-02-11T17:18:14.536Z,21.52
2023-02-11T17:20:41.817Z,22.25
2023-02-11T17:23:09.397Z,21.05
2023-02-11T17:25:39.378Z,22.10
2023-02-11T17:28:12.180Z,26.05
2023-02-11T17:30:41.762Z,28.25
2023-02-11T17:33:09.793Z,22.65
2023-02-11T17:35:41.959Z,22.92
2023-02-11T17:38:11.074Z,20.90
2023-02-11T17:40:38.032Z,21.02
2023-02-11T17:43:05.285Z,21.17
2023-02-11T17:45:33.818Z,18.23
2023-02-11T17:48:00.784Z,21.38
2023-02-11T17:50:29.300Z,29.08
2023-02-11T17:52:56.908Z,19.63
2023-02-11T17:55:23.868Z,17.48
2023-02-11T17:57:50.778Z,19.17
2023-02-11T18:00:18.734Z,16.80
2023-02-11T18:02:47.054Z,27.10
2023-02-11T18:05:14.739Z,20.58
2023-02-11T18:07:42.050Z,18.02
2023-02-11T18:10:09.882Z,14.50
2023-02-11T18:12:37.243Z,11.88
2023-02-11T18:15:04.678Z,11.57
2023-02-11T18:17:31.617Z,10.70
2023-02-11T18:19:59.980Z,11.02
2023-02-11T18:22:27.268Z,20.20
2023-02-11T18:24:54.719Z,13.02
2023-02-11T18:27:22.408Z,12.38
2023-02-11T18:29:49.458Z,12.18
2023-02-11T18:32:16.622Z,12.77
2023-02-11T18:34:43.781Z,12.23
2023-02-11T18:37:13.398Z,23.98
2023-02-11T18:39:40.490Z,15.90
2023-02-11T18:42:07.499Z,17.98
2023-02-11T18:44:34.474Z,18.92
2023-02-11T18:47:01.457Z,15.68
2023-02-11T18:49:28.491Z,13.10
2023-02-11T18:51:55.636Z,14.88
2023-02-11T18:54:24.280Z,12.90
2023-02-11T18:56:51.264Z,12.55
2023-02-11T18:59:18.199Z,13.23
2023-02-11T19:01:46.920Z,11.75
2023-02-11T19:04:18.979Z,11.50
2023-02-11T19:06:48.387Z,13.32
2023-02-11T19:09:17.351Z,14.30
2023-02-11T19:11:54.164Z,14.32
2023-02-11T19:14:23.284Z,14.25
2023-02-11T19:16:52.820Z,15.00
2023-02-11T19:19:22.296Z,13.10
2023-02-11T19:21:49.449Z,13.95
2023-02-11T19:24:19.811Z,11.98
2023-02-11T19:26:49.411Z,12.93
2023-02-11T19:29:16.945Z,12.50
2023-02-11T19:31:44.321Z,13.55
2023-02-11T19:34:13.465Z,12.88
2023-02-11T19:36:40.684Z,12.15
2023-02-11T19:39:08.360Z,11.77
2023-02-11T19:41:35.419Z,11.45
2023-02-11T19:44:05.069Z,11.00
2023-02-11T19:46:33.651Z,11.65
2023-02-11T19:49:01.121Z,11.55
2023-02-11T19:51:28.605Z,12.10
2023-02-11T19:53:55.643Z,12.82
2023-02-11T19:56:23.170Z,13.98
2023-02-11T19:58:50.179Z,14.05
2023-02-11T20:01:20.509Z,14.27
2023-02-11T20:03:50.138Z,13.75
2023-02-11T20:06:19.712Z,13.55
2023-02-11T20:08:46.805Z,22.77
2023-02-11T20:11:15.940Z,20.90
2023-02-11T20:13:43.518Z,18.40
2023-02-11T20:16:12.508Z,17.88
2023-02-11T20:18:41.120Z,16.63
2023-02-11T20:21:09.000Z,17.58
2023-02-11T20:23:36.563Z,16.05
2023-02-11T20:26:07.748Z,15.50
2023-02-11T20:28:34.841Z,15.02
2023-02-11T20:31:02.422Z,16.25
2023-02-11T20:33:31.122Z,16.70
2023-02-11T20:36:01.198Z,15.70
2023-02-11T20:38:28.452Z,14.50
2023-02-11T20:40:55.858Z,12.57
2023-02-11T20:43:22.982Z,13.48
2023-02-11T20:45:50.239Z,13.77
2023-02-11T20:48:17.437Z,12.90
2023-02-11T20:50:46.638Z,12.30
2023-02-11T20:53:16.771Z,13.20
2023-02-11T20:55:43.763Z,12.88
2023-02-11T20:58:10.715Z,12.13
2023-02-11T21:00:38.065Z,13.00
2023-02-11T21:03:05.156Z,12.27
2023-02-11T21:05:32.200Z,13.55
2023-02-11T21:07:59.114Z,12.45
2023-02-11T21:10:27.526Z,12.70
2023-02-11T21:12:54.510Z,13.38
2023-02-11T21:15:24.221Z,12.75
2023-02-11T21:17:51.431Z,13.80
2023-02-11T21:20:19.027Z,11.57
2023-02-11T21:22:45.988Z,12.88
2023-02-11T21:25:13.043Z,12.65
2023-02-11T21:27:41.355Z,13.05
2023-02-11T21:30:09.463Z,13.52
2023-02-11T21:32:36.410Z,12.68
2023-02-11T21:35:03.351Z,13.52
2023-02-11T21:37:30.278Z,12.88
2023-02-11T21:39:57.244Z,13.38
2023-02-11T21:42:24.250Z,11.48
2023-02-11T21:44:52.543Z,12.60
2023-02-11T21:47:19.443Z,12.90
2023-02-11T21:49:46.341Z,12.68
2023-02-11T21:52:13.348Z,13.77
2023-02-11T21:54:40.276Z,14.55
2023-02-11T21:57:07.188Z,12.75
2023-02-11T21:59:34.165Z,13.95
2023-02-11T22:02:02.551Z,15.52
2023-02-11T22:04:29.489Z,14.63
2023-02-11T22:06:56.426Z,15.50
2023-02-11T22:09:23.390Z,13.45
2023-02-11T22:11:50.421Z,14.40
2023-02-11T22:14:17.391Z,13.65
2023-02-11T22:16:45.317Z,14.02
2023-02-11T22:19:14.692Z,14.05
2023-02-11T22:21:43.245Z,14.77
2023-02-11T22:24:10.282Z,13.00
2023-02-11T22:26:38.066Z,14.73
2023-02-11T22:29:05.006Z,14.43
2023-02-11T22:31:33.840Z,14.63
2023-02-11T22:34:02.238Z,14.73
2023-02-11T22:36:32.531Z,14.60
2023-02-11T22:39:01.813Z,15.85
2023-02-11T22:41:29.144Z,15.63
2023-02-11T22:43:56.522Z,17.40
2023-02-11T22:46:23.514Z,17.63
2023-02-11T22:48:51.213Z,18.58
2023-02-11T22:51:20.385Z,18.65
2023-02-11T22:53:53.332Z,19.55
2023-02-11T22:56:20.960Z,18.73
2023-02-11T22:58:48.158Z,16.92
2023-02-11T23:01:15.567Z,16.15
2023-02-11T23:03:42.828Z,18.25
2023-02-11T23:06:10.801Z,16.20
2023-02-11T23:08:38.781Z,16.98
2023-02-11T23:11:09.850Z,13.95
2023-02-11T23:13:39.034Z,13.52
2023-02-11T23:16:08.078Z,13.35
2023-02-11T23:18:36.174Z,14.00
2023-02-11T23:21:05.117Z,13.27
2023-02-11T23:23:32.139Z,14.15
2023-02-11T23:25:59.064Z,13.02
2023-02-11T23:28:27.787Z,13.30
2023-02-11T23:30:55.084Z,11.65
2023-02-11T23:33:23.044Z,12.00
2023-02-11T23:35:49.964Z,11.80
2023-02-11T23:38:16.917Z,11.25
2023-02-11T23:40:43.884Z,12.05
2023-02-11T23:43:10.780Z,13.65
2023-02-11T23:45:39.063Z,11.55
2023-02-11T23:48:05.958Z,12.32
2023-02-11T23:50:33.880Z,11.73
2023-02-11T23:53:00.794Z,12.40
2023-02-11T23:55:27.709Z,12.82
2023-02-11T23:57:54.608Z,12.90
